Time;durP1;ratioP1;P1;durP2;ratioP2;P2;SDS_P1;SDS_P2;PMS_P1;PMS_P2;Temp;Humidity;BMP_temperature;BMP_pressure;BME280_temperature;BME280_humidity;BME280_pressure;Samples;Min_cycle;Max_cycle;Signal;HPM_P1;HPM_P2
2024/01/19 00:00:56;;;;;;;31.67;26.95;;;;;;;7.37;76.17;98258.22;4303730;33;20171;-74
2024/01/19 00:03:26;;;;;;;36.13;27.62;;;;;;;7.34;76.17;98266.38;4303840;33;20167;-74
2024/01/19 00:05:55;;;;;;;39.50;28.67;;;;;;;7.08;76.84;98265.84;4303784;33;20147;-74
2024/01/19 00:08:27;;;;;;;35.55;26.80;;;;;;;7.22;76.30;98273.47;4303983;33;20163;-74
2024/01/19 00:10:57;;;;;;;35.22;25.73;;;;;;;7.01;76.44;98272.56;4303385;28;20171;-74
2024/01/19 00:13:28;;;;;;;34.35;26.50;;;;;;;6.91;76.63;98285.63;4288446;33;20151;-73
2024/01/19 00:15:58;;;;;;;35.25;27.65;;;;;;;6.94;75.97;98295.94;4289129;33;20152;-73
2024/01/19 00:18:27;;;;;;;37.95;27.20;;;;;;;7.07;74.95;98298.41;4289028;33;20175;-73
2024/01/19 00:20:56;;;;;;;33.63;26.98;;;;;;;6.97;74.96;98321.16;4289142;33;20163;-74
2024/01/19 00:23:27;;;;;;;36.42;27.45;;;;;;;6.63;75.98;98335.19;4289587;33;20206;-74
2024/01/19 00:25:56;;;;;;;34.33;24.23;;;;;;;6.47;76.93;98350.50;4289301;33;20191;-73
2024/01/19 00:28:29;;;;;;;31.37;24.20;;;;;;;6.42;76.66;98342.13;4289344;33;20179;-73
2024/01/19 00:30:57;;;;;;;31.25;22.87;;;;;;;6.47;76.02;98361.03;4289108;33;20151;-73
2024/01/19 00:33:28;;;;;;;29.25;20.80;;;;;;;6.24;75.67;98360.16;4289121;33;20171;-73
2024/01/19 00:35:57;;;;;;;28.77;21.58;;;;;;;5.98;76.31;98361.28;4289113;33;20160;-73
2024/01/19 00:38:28;;;;;;;32.67;22.77;;;;;;;5.76;76.16;98373.38;4289585;33;20163;-73
2024/01/19 00:40:57;;;;;;;31.40;22.30;;;;;;;6.07;74.95;98369.31;4293156;28;20164;-74
2024/01/19 00:43:30;;;;;;;24.80;18.80;;;;;;;5.78;74.92;98375.88;4287914;33;20176;-74
2024/01/19 00:45:59;;;;;;;26.08;19.87;;;;;;;5.86;74.29;98387.50;4289185;33;20144;-74
2024/01/19 00:48:28;;;;;;;30.80;20.12;;;;;;;5.78;74.30;98405.66;4289213;33;20143;-74
2024/01/19 00:50:58;;;;;;;26.45;20.85;;;;;;;6.07;73.03;98407.94;4289087;33;20152;-74
2024/01/19 00:53:29;;;;;;;26.30;18.80;;;;;;;5.81;73.21;98417.69;4289407;33;20172;-74
2024/01/19 00:55:58;;;;;;;21.55;18.23;;;;;;;5.78;72.74;98423.16;4288930;33;20164;-74
2024/01/19 00:58:29;;;;;;;22.85;19.12;;;;;;;5.60;72.69;98420.94;4289122;33;20136;-74
2024/01/19 01:00:58;;;;;;;23.27;18.02;;;;;;;5.33;72.62;98439.53;4289120;33;20159;-74
2024/01/19 01:03:29;;;;;;;21.95;16.00;;;;;;;5.59;71.44;98428.94;4288980;33;20139;-74
2024/01/19 01:06:00;;;;;;;23.27;17.42;;;;;;;5.21;71.20;98443.03;4288851;33;20139;-74
2024/01/19 01:08:34;;;;;;;20.98;16.40;;;;;;;4.79;71.66;98441.59;4289378;33;20172;-73
2024/01/19 01:11:05;;;;;;;21.15;17.00;;;;;;;4.61;71.88;98443.72;4292977;28;20172;-74
2024/01/19 01:16:13;;;;;;;27.08;18.02;;;;;;;4.38;71.09;98464.44;4289306;33;20151;-73
2024/01/19 01:18:43;;;;;;;29.00;20.90;;;;;;;4.19;71.56;98469.22;4289367;33;20136;-73
2024/01/19 01:21:15;;;;;;;24.97;19.23;;;;;;;3.86;72.11;98480.97;4289421;33;20164;-73
2024/01/19 01:23:46;;;;;;;24.30;20.15;;;;;;;3.92;71.48;98492.87;4289460;33;20148;-74
2024/01/19 01:26:15;;;;;;;25.10;19.67;;;;;;;3.98;71.09;98500.31;4289702;33;20159;-73
2024/01/19 01:28:44;;;;;;;27.45;19.48;;;;;;;3.90;71.40;98508.66;4289567;33;20513;-73
2024/01/19 01:31:13;;;;;;;30.80;20.02;;;;;;;3.90;71.05;98510.44;4289055;33;20147;-73
2024/01/19 01:33:43;;;;;;;25.92;20.45;;;;;;;3.78;70.88;98532.19;4289241;33;20168;-73
2024/01/19 01:36:12;;;;;;;29.75;21.80;;;;;;;3.80;70.64;98512.84;4288415;33;20163;-73
2024/01/19 01:38:41;;;;;;;31.55;22.20;;;;;;;3.57;70.94;98537.00;4289721;33;20512;-74
2024/01/19 01:41:12;;;;;;;29.83;19.90;;;;;;;3.60;71.05;98553.37;4299800;28;20159;-75
2024/01/19 01:43:42;;;;;;;31.33;21.30;;;;;;;3.61;70.97;98562.06;4288653;33;20191;-75
2024/01/19 01:46:12;;;;;;;30.55;19.85;;;;;;;3.69;70.42;98565.06;4289582;33;20187;-75
2024/01/19 01:48:41;;;;;;;33.25;21.67;;;;;;;3.67;69.94;98572.16;4305370;33;20498;-75
2024/01/19 01:51:11;;;;;;;32.38;21.17;;;;;;;3.75;69.99;98569.06;4318517;33;20142;-75
2024/01/19 01:53:42;;;;;;;27.95;20.50;;;;;;;3.43;69.66;98571.91;4317333;33;20155;-76
2024/01/19 01:56:13;;;;;;;30.93;22.33;;;;;;;3.33;70.22;98568.16;4319103;33;20166;-75
2024/01/19 01:58:42;;;;;;;30.88;20.67;;;;;;;3.30;70.41;98571.81;4318345;33;20256;-75
2024/01/19 02:01:14;;;;;;;29.73;21.10;;;;;;;3.54;70.02;98569.47;4318476;33;20450;-75
2024/01/19 02:03:45;;;;;;;30.08;20.45;;;;;;;3.48;70.08;98561.13;4317764;33;20425;-75
2024/01/19 02:06:14;;;;;;;28.60;19.77;;;;;;;3.32;69.74;98567.31;4318218;33;20159;-75
2024/01/19 02:08:44;;;;;;;32.13;21.10;;;;;;;3.29;70.31;98574.53;4318775;33;20232;-75
2024/01/19 02:11:15;;;;;;;31.67;22.67;;;;;;;3.09;70.37;98583.56;4312974;28;20223;-75
2024/01/19 02:13:45;;;;;;;29.52;20.62;;;;;;;3.12;70.23;98591.22;4289155;33;20159;-75
2024/01/19 02:16:15;;;;;;;34.55;21.00;;;;;;;3.19;69.69;98588.16;4289977;33;20144;-75
2024/01/19 02:18:44;;;;;;;31.37;20.95;;;;;;;3.17;69.90;98595.28;4289819;33;20176;-75
2024/01/19 02:21:13;;;;;;;30.08;21.77;;;;;;;3.02;70.17;98601.41;4290016;33;20144;-75
2024/01/19 02:23:52;;;;;;;33.22;22.17;;;;;;;2.88;69.91;98609.22;4289633;33;20501;-75
2024/01/19 02:26:23;;;;;;;29.95;22.52;;;;;;;2.79;70.15;98620.22;4289620;33;20152;-75
2024/01/19 02:28:52;;;;;;;35.83;23.05;;;;;;;3.06;69.91;98625.62;4289813;33;20152;-75
2024/01/19 02:31:24;;;;;;;31.52;20.52;;;;;;;2.89;70.10;98635.31;4289739;33;20152;-75
2024/01/19 02:33:54;;;;;;;;;;;;;;;2.88;69.49;98623.13;4289702;33;20163;-75
2024/01/19 02:36:23;;;;;;;30.05;22.90;;;;;;;2.87;69.50;98638.94;4288963;33;20031;-75
2024/01/19 02:38:52;;;;;;;31.05;22.55;;;;;;;3.03;68.99;98638.88;4288847;33;20510;-75
2024/01/19 02:41:23;;;;;;;36.00;24.20;;;;;;;2.91;69.15;98643.91;4293494;28;20132;-75
2024/01/19 02:43:52;;;;;;;32.50;22.15;;;;;;;2.86;68.90;98655.56;4288141;33;20152;-75
2024/01/19 02:46:23;;;;;;;35.65;23.00;;;;;;;2.85;69.24;98662.59;4289085;33;20144;-75
2024/01/19 02:48:55;;;;;;;31.27;21.48;;;;;;;2.80;69.26;98658.53;4298492;33;20147;-75
2024/01/19 02:51:24;;;;;;;30.55;19.87;;;;;;;2.83;69.15;98685.34;4303235;33;20131;-75
2024/01/19 02:53:54;;;;;;;30.80;22.17;;;;;;;2.70;69.51;98677.38;4303749;33;20136;-75
2024/01/19 02:56:24;;;;;;;33.85;21.52;;;;;;;2.82;69.10;98691.53;4304166;33;20147;-75
2024/01/19 02:58:54;;;;;;;32.35;22.85;;;;;;;2.88;68.90;98680.69;4303433;33;20286;-75
2024/01/19 03:01:26;;;;;;;29.92;20.88;;;;;;;3.00;68.01;98691.38;4303719;33;20151;-75
2024/01/19 03:03:55;;;;;;;31.70;21.87;;;;;;;3.03;68.04;98688.59;4303643;33;20156;-75
2024/01/19 03:06:24;;;;;;;28.87;20.90;;;;;;;3.02;68.18;98700.84;4308453;33;20394;-75
2024/01/19 03:08:53;;;;;;;31.30;21.80;;;;;;;2.74;68.35;98692.91;4308680;33;20492;-75
2024/01/19 03:11:23;;;;;;;30.25;20.83;;;;;;;2.81;68.18;98704.66;4312901;28;20512;-75
2024/01/19 03:13:53;;;;;;;27.95;19.52;;;;;;;2.75;68.23;98718.94;4293012;33;20144;-75
2024/01/19 03:16:23;;;;;;;27.50;17.80;;;;;;;2.58;68.93;98717.28;4294784;33;20171;-75
2024/01/19 03:18:54;;;;;;;27.90;19.48;;;;;;;2.64;68.15;98718.69;4294603;33;20501;-75
2024/01/19 03:21:24;;;;;;;27.85;19.42;;;;;;;2.65;68.09;98723.88;4294763;33;20497;-75
2024/01/19 03:23:53;;;;;;;31.23;19.73;;;;;;;2.67;67.58;98721.16;4294818;33;20148;-75
2024/01/19 03:26:22;;;;;;;26.08;18.90;;;;;;;2.33;68.39;98736.06;4294608;33;20147;-75
2024/01/19 03:28:53;;;;;;;24.87;18.20;;;;;;;2.77;68.02;98738.00;4294622;33;20156;-75
2024/01/19 03:31:22;;;;;;;25.67;21.08;;;;;;;2.67;67.63;98740.31;4294551;33;20163;-75
2024/01/19 03:33:51;;;;;;;27.62;20.48;;;;;;;2.51;67.62;98741.25;4294468;33;20132;-75
2024/01/19 03:36:24;;;;;;;;;;;;;;;2.72;67.59;98748.72;4294723;33;20148;-75
2024/01/19 03:38:53;;;;;;;25.27;17.30;;;;;;;2.85;66.61;98753.28;4294477;33;20046;-75
2024/01/19 03:41:22;;;;;;;25.20;18.17;;;;;;;2.69;67.10;98755.91;4298706;28;20270;-75
2024/01/19 03:43:53;;;;;;;26.40;17.92;;;;;;;2.69;67.04;98751.53;4293416;33;20199;-75
2024/01/19 03:46:22;;;;;;;22.60;17.05;;;;;;;2.62;67.39;98765.03;4294263;33;20159;-75
2024/01/19 03:48:51;;;;;;;28.98;18.45;;;;;;;2.47;67.59;98758.87;4303397;33;20171;-75
2024/01/19 03:51:20;;;;;;;27.10;18.05;;;;;;;2.52;67.27;98762.06;4309024;33;20418;-75
2024/01/19 03:53:51;;;;;;;23.55;16.92;;;;;;;2.53;67.25;98750.66;4318385;33;20489;-75
2024/01/19 03:56:20;;;;;;;23.12;16.42;;;;;;;2.38;67.62;98762.00;4323873;33;20202;-75
2024/01/19 03:58:49;;;;;;;26.15;16.58;;;;;;;2.30;68.17;98759.78;4323198;33;20508;-75
2024/01/19 04:01:22;;;;;;;26.45;17.95;;;;;;;2.34;67.87;98755.25;4323223;33;20146;-75
2024/01/19 04:03:52;;;;;;;23.77;16.00;;;;;;;2.51;67.20;98754.31;4323209;33;20148;-75
2024/01/19 04:06:21;;;;;;;28.05;17.23;;;;;;;2.32;67.66;98757.06;4322980;33;20146;-75
2024/01/19 04:08:50;;;;;;;24.35;17.02;;;;;;;2.22;67.91;98760.19;4323591;33;20150;-75
2024/01/19 04:11:20;;;;;;;25.80;16.65;;;;;;;2.44;67.52;98759.03;4317478;28;20179;-75
2024/01/19 04:13:49;;;;;;;22.95;16.08;;;;;;;2.40;67.28;98774.03;4293230;33;20179;-75
2024/01/19 04:16:18;;;;;;;25.88;16.65;;;;;;;2.36;67.62;98774.28;4292611;33;20182;-75
2024/01/19 04:18:58;;;;;;;23.17;16.35;;;;;;;2.44;67.61;98782.56;4291249;33;20415;-75
2024/01/19 04:21:27;;;;;;;21.15;15.75;;;;;;;2.43;67.44;98791.34;4291541;33;20163;-75
2024/01/19 04:23:57;;;;;;;22.15;16.73;;;;;;;2.45;67.16;98798.19;4291436;33;20475;-75
2024/01/19 04:26:27;;;;;;;25.75;17.05;;;;;;;2.51;67.00;98791.75;4291684;33;20179;-75
2024/01/19 04:28:57;;;;;;;21.42;14.75;;;;;;;2.18;67.80;98810.94;4291177;33;20159;-75
2024/01/19 04:31:29;;;;;;;27.40;15.55;;;;;;;2.20;67.42;98819.53;4291173;33;20156;-75
2024/01/19 04:33:59;;;;;;;;;;;;;;;2.33;67.42;98826.72;4291866;33;20148;-75
2024/01/19 04:36:28;;;;;;;26.27;15.93;;;;;;;2.37;67.20;98839.53;4291476;33;20019;-75
2024/01/19 04:38:58;;;;;;;23.55;17.10;;;;;;;2.51;66.86;98846.66;4291418;33;20517;-75
2024/01/19 04:41:27;;;;;;;21.08;15.75;;;;;;;2.44;67.05;98850.53;4291698;28;20148;-75
2024/01/19 04:43:56;;;;;;;19.83;14.38;;;;;;;2.45;66.79;98863.53;4290139;33;20187;-75
2024/01/19 04:46:29;;;;;;;23.73;16.80;;;;;;;2.42;66.62;98847.16;4291229;33;20156;-75
2024/01/19 04:49:00;;;;;;;19.48;14.00;;;;;;;2.51;66.41;98848.44;4300612;33;20143;-75
2024/01/19 04:51:30;;;;;;;23.80;15.97;;;;;;;2.64;66.22;98858.16;4305800;33;20159;-75
2024/01/19 04:53:59;;;;;;;18.48;13.35;;;;;;;2.55;66.01;98850.81;4305728;33;20175;-75
2024/01/19 04:56:28;;;;;;;21.27;13.35;;;;;;;2.31;66.51;98852.94;4305591;33;20153;-75
2024/01/19 04:59:01;;;;;;;22.00;15.00;;;;;;;2.35;66.57;98857.09;4305221;33;20143;-75
2024/01/19 05:01:31;;;;;;;20.58;14.52;;;;;;;2.30;66.37;98850.44;4305360;33;20175;-75
2024/01/19 05:04:02;;;;;;;21.83;14.85;;;;;;;2.36;66.40;98871.00;4305165;33;20183;-75
2024/01/19 05:06:31;;;;;;;17.77;13.40;;;;;;;2.07;67.18;98868.13;4305595;33;20159;-75
2024/01/19 05:09:00;;;;;;;21.62;14.55;;;;;;;2.33;66.67;98863.31;4305537;33;20170;-75
2024/01/19 05:11:30;;;;;;;19.30;14.00;;;;;;;2.35;66.29;98862.31;4309960;28;20148;-75
2024/01/19 05:13:59;;;;;;;21.35;14.15;;;;;;;1.95;67.07;98885.28;4289652;33;20156;-75
2024/01/19 05:16:31;;;;;;;18.45;12.13;;;;;;;2.30;66.48;98880.03;4290028;33;20164;-75
2024/01/19 05:19:02;;;;;;;23.65;14.73;;;;;;;2.21;66.67;98877.84;4290668;33;20144;-75
2024/01/19 05:21:30;;;;;;;20.75;14.30;;;;;;;2.07;66.94;98889.03;4290012;33;20143;-75
2024/01/19 05:24:00;;;;;;;20.85;13.00;;;;;;;1.88;67.48;98889.09;4290032;33;20346;-75
2024/01/19 05:26:29;;;;;;;20.40;13.85;;;;;;;1.94;67.20;98896.66;4289176;33;20175;-75
2024/01/19 05:28:58;;;;;;;19.62;12.77;;;;;;;1.98;67.18;98905.19;4288889;33;20168;-75
2024/01/19 05:31:27;;;;;;;22.05;13.43;;;;;;;2.29;66.56;98906.22;4289231;33;20159;-75
2024/01/19 05:34:00;;;;;;;20.80;13.57;;;;;;;2.12;66.86;98902.69;4290306;33;20143;-75
2024/01/19 05:36:31;;;;;;;19.25;13.27;;;;;;;2.33;66.31;98920.81;4291003;33;20159;-75
2024/01/19 05:39:00;;;;;;;18.05;13.02;;;;;;;2.48;65.98;98912.19;4290847;33;20502;-75
2024/01/19 05:41:30;;;;;;;19.15;12.40;;;;;;;2.86;64.67;98910.19;4295149;28;20417;-75
2024/01/19 05:43:59;;;;;;;18.87;13.95;;;;;;;2.63;64.56;98906.16;4289557;33;20474;-75
2024/01/19 05:46:28;;;;;;;16.52;12.10;;;;;;;2.82;64.59;98906.03;4290531;33;20179;-75
2024/01/19 05:48:57;;;;;;;21.02;13.43;;;;;;;2.71;64.72;98913.59;4299274;33;20139;-75
2024/01/19 05:51:27;;;;;;;17.95;11.88;;;;;;;2.57;64.70;98916.09;4303735;33;20139;-75
2024/01/19 05:53:58;;;;;;;17.77;12.10;;;;;;;2.79;63.95;98911.44;4305062;33;20516;-75
2024/01/19 05:56:27;;;;;;;23.20;14.43;;;;;;;2.60;64.40;98914.16;4305820;33;20166;-75
2024/01/19 05:58:57;;;;;;;19.87;12.95;;;;;;;2.93;63.28;98926.37;4305789;33;20261;-75
2024/01/19 06:01:26;;;;;;;20.85;13.32;;;;;;;2.82;63.58;98926.13;4305606;33;20186;-75
2024/01/19 06:03:58;;;;;;;18.95;12.95;;;;;;;2.86;63.67;98922.41;4304947;33;20175;-75
2024/01/19 06:06:27;;;;;;;17.87;11.27;;;;;;;2.73;64.00;98927.44;4305104;33;20139;-75
2024/01/19 06:08:58;;;;;;;13.82;10.52;;;;;;;2.54;64.00;98940.66;4305210;33;20520;-75
2024/01/19 06:11:33;;;;;;;15.20;11.88;;;;;;;2.88;63.57;98942.31;4309181;28;20510;-75
2024/01/19 06:14:03;;;;;;;19.80;11.23;;;;;;;2.93;62.88;98947.31;4304493;33;20127;-75
2024/01/19 06:16:32;;;;;;;24.48;16.37;;;;;;;2.53;63.61;98954.63;4305278;33;20147;-75
2024/01/19 06:19:01;;;;;;;16.67;12.70;;;;;;;2.49;64.41;98965.31;4305273;33;20151;-75
2024/01/19 06:21:31;;;;;;;17.02;12.37;;;;;;;2.85;63.28;98963.44;4304981;33;20151;-75
2024/01/19 06:24:02;;;;;;;16.75;11.95;;;;;;;2.92;62.79;98984.88;4305077;33;20152;-75
2024/01/19 06:26:33;;;;;;;16.90;11.90;;;;;;;2.84;62.80;99014.06;4305900;33;20420;-75
2024/01/19 06:29:02;;;;;;;18.08;11.80;;;;;;;2.92;62.78;99018.87;4304844;33;20167;-75
2024/01/19 06:31:32;;;;;;;23.05;11.73;;;;;;;3.13;62.10;99017.78;4305046;33;20195;-73
2024/01/19 06:34:03;;;;;;;13.85;10.13;;;;;;;3.11;62.00;99013.53;4304927;33;20172;-73
2024/01/19 06:36:32;;;;;;;15.88;11.50;;;;;;;2.78;62.70;99032.69;4305537;33;20506;-73
2024/01/19 06:39:04;;;;;;;13.55;10.02;;;;;;;3.31;61.76;99025.56;4304625;33;20152;-73
2024/01/19 06:41:33;;;;;;;15.88;11.05;;;;;;;3.24;61.62;99034.66;4303911;28;20156;-73
2024/01/19 06:44:05;;;;;;;17.17;9.82;;;;;;;3.14;62.05;99048.25;4289924;33;20136;-73
2024/01/19 06:46:34;;;;;;;13.13;10.55;;;;;;;3.48;61.32;99046.44;4290143;33;20167;-74
2024/01/19 06:49:03;;;;;;;12.85;9.75;;;;;;;3.54;60.63;99034.81;4300378;33;20500;-75
2024/01/19 06:51:32;;;;;;;15.40;9.45;;;;;;;2.96;61.84;99047.44;4304679;33;20154;-75
2024/01/19 06:54:05;;;;;;;12.48;8.45;;;;;;;3.10;61.31;99061.59;4305224;33;20155;-75
2024/01/19 06:56:34;;;;;;;14.30;9.32;;;;;;;3.37;60.95;99061.91;4305070;33;20160;-75
2024/01/19 06:59:03;;;;;;;13.32;8.80;;;;;;;3.08;61.38;99072.13;4304717;33;20322;-75
2024/01/19 07:01:34;;;;;;;13.18;9.60;;;;;;;3.22;61.04;99088.91;4304328;33;20155;-75
2024/01/19 07:04:04;;;;;;;13.67;9.90;;;;;;;2.85;62.00;99096.88;4304538;33;20139;-75
2024/01/19 07:06:33;;;;;;;13.82;10.38;;;;;;;2.94;61.74;99103.41;4304031;33;20139;-75
2024/01/19 07:09:04;;;;;;;12.18;8.18;;;;;;;3.07;61.87;99116.69;4304261;33;20467;-73
2024/01/19 07:11:37;;;;;;;14.00;9.55;;;;;;;3.34;61.07;99128.38;4303113;28;20171;-74
2024/01/19 07:14:06;;;;;;;14.40;8.88;;;;;;;3.15;61.35;99138.09;4288655;33;20171;-74
2024/01/19 07:16:39;;;;;;;12.65;8.48;;;;;;;3.25;60.87;99133.22;4289457;33;20175;-74
2024/01/19 07:19:08;;;;;;;15.30;10.35;;;;;;;3.24;60.79;99145.47;4289473;33;20159;-74
2024/01/19 07:21:38;;;;;;;24.05;14.32;;;;;;;3.42;60.37;99143.69;4289333;33;20156;-73
2024/01/19 07:24:09;;;;;;;20.90;12.65;;;;;;;3.38;60.75;99145.63;4289877;33;20176;-74
2024/01/19 07:26:40;;;;;;;24.52;15.57;;;;;;;3.62;60.11;99148.72;4289791;33;20148;-74
2024/01/19 07:29:09;;;;;;;19.83;13.20;;;;;;;3.56;60.25;99154.28;4290227;33;20164;-73
2024/01/19 07:31:40;;;;;;;15.02;9.80;;;;;;;3.67;59.65;99154.56;4289378;33;20159;-73
2024/01/19 07:34:09;;;;;;;17.17;9.63;;;;;;;3.66;59.71;99150.25;4289707;33;20148;-73
2024/01/19 07:36:38;;;;;;;11.75;8.45;;;;;;;3.36;60.30;99154.47;4289377;33;20160;-73
2024/01/19 07:39:07;;;;;;;11.45;7.68;;;;;;;3.40;60.40;99169.09;4288264;33;20152;-73
2024/01/19 07:41:41;;;;;;;12.75;8.20;;;;;;;3.25;60.00;99168.13;4292260;28;20399;-74
2024/01/19 07:44:11;;;;;;;10.70;7.80;;;;;;;3.22;60.74;99175.28;4287323;33;20176;-73
2024/01/19 07:46:41;;;;;;;15.18;9.63;;;;;;;3.31;60.04;99188.75;4287919;33;20164;-73
2024/01/19 07:49:11;;;;;;;15.57;8.65;;;;;;;2.96;60.84;99191.34;4298198;33;20509;-74
2024/01/19 07:51:42;;;;;;;13.85;8.73;;;;;;;3.09;61.17;99204.69;4302061;33;20156;-74
2024/01/19 07:54:13;;;;;;;9.82;7.07;;;;;;;2.88;62.35;99213.59;4304070;33;20148;-74
2024/01/19 07:56:46;;;;;;;12.18;7.70;;;;;;;2.99;61.75;99198.22;4304256;33;20155;-74
2024/01/19 07:59:15;;;;;;;10.55;7.28;;;;;;;2.85;61.46;99203.28;4304898;33;20179;-73
2024/01/19 08:01:46;;;;;;;11.52;6.12;;;;;;;2.85;62.01;99198.03;4304357;33;20146;-73
2024/01/19 08:04:16;;;;;;;12.65;7.75;;;;;;;2.68;62.58;99206.72;4304471;33;20140;-73
2024/01/19 08:06:51;;;;;;;13.77;9.32;;;;;;;2.58;62.72;99192.41;4304043;33;20155;-74
2024/01/19 08:09:22;;;;;;;11.77;7.10;;;;;;;2.50;63.19;99189.31;4304028;33;20159;-74
2024/01/19 08:11:52;;;;;;;16.90;9.30;;;;;;;2.63;62.53;99183.41;4301523;28;20183;-74
2024/01/19 08:14:21;;;;;;;12.57;9.07;;;;;;;2.40;63.34;99178.41;4288810;33;20140;-74
2024/01/19 08:16:52;;;;;;;14.50;7.95;;;;;;;2.44;64.08;99177.34;4289838;33;20171;-74
2024/01/19 08:19:21;;;;;;;19.12;11.68;;;;;;;2.28;64.21;99187.69;4289539;33;20423;-74
2024/01/19 08:21:51;;;;;;;15.07;9.60;;;;;;;2.55;63.09;99185.53;4289388;33;20167;-74
2024/01/19 08:24:20;;;;;;;15.02;8.45;;;;;;;2.55;63.41;99180.31;4289532;33;20135;-74
2024/01/19 08:26:52;;;;;;;12.05;7.28;;;;;;;2.33;63.24;99187.47;4290080;33;20155;-74
2024/01/19 08:29:21;;;;;;;10.38;7.53;;;;;;;2.43;62.73;99204.41;4290229;33;20175;-74
2024/01/19 08:31:51;;;;;;;12.05;8.10;;;;;;;2.47;62.02;99213.81;4289986;33;20267;-74
2024/01/19 08:34:24;;;;;;;11.70;8.27;;;;;;;2.37;61.56;99218.63;4289736;33;20167;-74
2024/01/19 08:36:53;;;;;;;16.05;7.93;;;;;;;2.51;61.40;99225.81;4289782;33;20155;-74
2024/01/19 08:39:22;;;;;;;15.43;9.15;;;;;;;2.31;61.08;99229.38;4289851;33;20156;-74
2024/01/19 08:41:53;;;;;;;20.12;9.23;;;;;;;2.30;61.77;99239.91;4297673;28;20211;-74
2024/01/19 08:44:24;;;;;;;13.18;8.57;;;;;;;2.38;61.30;99241.25;4289427;33;20154;-74
2024/01/19 08:46:54;;;;;;;10.85;8.25;;;;;;;2.42;61.11;99241.97;4289878;33;20172;-74
2024/01/19 08:49:23;;;;;;;15.38;8.60;;;;;;;2.51;61.36;99245.91;4301749;33;20139;-75
2024/01/19 08:51:53;;;;;;;12.80;8.68;;;;;;;2.43;61.36;99252.31;4304311;33;20159;-74
2024/01/19 08:54:22;;;;;;;12.43;8.57;;;;;;;2.77;60.89;99253.34;4304300;33;20452;-74
2024/01/19 08:56:56;;;;;;;;;;;;;;;2.32;61.70;99248.50;4303136;33;20179;-74
2024/01/19 08:59:27;;;;;;;12.23;9.00;;;;;;;2.43;62.17;99238.41;4304587;33;20092;-74
2024/01/19 09:01:57;;;;;;;12.77;8.70;;;;;;;2.31;62.15;99241.59;4304149;33;20191;-74
2024/01/19 09:04:27;;;;;;;14.32;9.38;;;;;;;2.44;62.47;99240.09;4303846;33;20142;-74
2024/01/19 09:06:57;;;;;;;13.05;9.02;;;;;;;2.55;61.46;99244.84;4303884;33;20464;-74
2024/01/19 09:09:28;;;;;;;14.57;9.18;;;;;;;2.52;61.36;99245.81;4304061;33;20152;-74
2024/01/19 09:11:58;;;;;;;17.05;9.00;;;;;;;2.58;60.96;99249.94;4306528;28;20171;-74
2024/01/19 09:14:28;;;;;;;19.40;10.20;;;;;;;2.34;61.48;99252.75;4303123;33;20131;-74
2024/01/19 09:16:58;;;;;;;16.73;8.82;;;;;;;2.45;61.22;99258.34;4314689;33;20144;-74
2024/01/19 09:19:27;;;;;;;16.08;9.52;;;;;;;2.17;61.48;99271.81;4303753;33;20159;-74
2024/01/19 09:21:57;;;;;;;17.20;10.18;;;;;;;2.44;61.24;99271.47;4303484;33;20163;-74
2024/01/19 09:24:27;;;;;;;13.52;9.88;;;;;;;2.52;60.86;99286.81;4303690;33;20187;-74
2024/01/19 09:26:56;;;;;;;15.10;10.27;;;;;;;2.35;61.28;99285.81;4304565;33;20152;-74
2024/01/19 09:29:27;;;;;;;12.50;10.20;;;;;;;2.36;60.76;99289.28;4304854;33;20188;-74
2024/01/19 09:31:59;;;;;;;13.15;10.18;;;;;;;2.27;60.59;99298.41;4304017;33;20143;-74
2024/01/19 09:34:28;;;;;;;15.98;9.55;;;;;;;2.54;60.02;99296.28;4304172;33;20509;-74
2024/01/19 09:36:57;;;;;;;16.45;9.43;;;;;;;2.47;60.21;99303.56;4304198;33;20171;-74
2024/01/19 09:39:26;;;;;;;17.95;10.35;;;;;;;2.84;59.56;99306.25;4304148;33;20179;-74
2024/01/19 09:42:03;;;;;;;14.07;9.88;;;;;;;2.45;60.00;99301.94;4301788;28;20159;-74
2024/01/19 09:44:36;;;;;;;16.62;11.57;;;;;;;2.54;59.77;99298.06;4288555;33;20166;-75
2024/01/19 09:47:17;;;;;;;16.15;11.55;;;;;;;2.50;60.83;99304.34;4289839;33;20219;-74
2024/01/19 09:50:04;;;;;;;16.20;10.98;;;;;;;2.24;62.50;99323.81;4304114;33;20139;-74
2024/01/19 09:52:44;;;;;;;25.20;18.67;;;;;;;2.36;64.05;99320.66;4304090;33;20155;-74
2024/01/19 09:55:13;;;;;;;23.02;15.25;;;;;;;2.43;64.85;99325.53;4303779;33;20512;-74
2024/01/19 09:57:46;;;;;;;19.33;12.60;;;;;;;2.20;65.99;99318.72;4303466;33;20144;-74
2024/01/19 10:00:18;;;;;;;18.08;12.13;;;;;;;2.16;66.07;99319.78;4303416;33;20159;-75
2024/01/19 10:02:48;;;;;;;;;;;;;;;2.37;65.74;99322.34;4303393;33;20469;-75
2024/01/19 10:05:19;;;;;;;16.35;12.05;;;;;;;2.49;65.44;99332.25;4303717;33;20058;-74
2024/01/19 10:07:53;;;;;;;16.52;13.07;;;;;;;2.38;64.14;99324.91;4303240;33;20156;-74
2024/01/19 10:10:26;;;;;;;16.52;11.43;;;;;;;2.49;63.69;99332.25;4303112;33;20143;-75
2024/01/19 10:12:55;;;;;;;24.90;13.62;;;;;;;2.65;63.68;99328.03;4300935;28;20479;-74
2024/01/19 10:15:26;;;;;;;21.17;13.32;;;;;;;2.89;63.02;99325.19;4286545;33;20155;-75
2024/01/19 10:17:55;;;;;;;25.70;14.25;;;;;;;2.83;63.52;99334.19;4288584;33;20143;-75
2024/01/19 10:20:25;;;;;;;18.25;11.88;;;;;;;2.94;62.95;99328.44;4289022;33;20171;-75
2024/01/19 10:22:54;;;;;;;18.42;12.77;;;;;;;3.04;62.60;99324.44;4288505;33;20152;-75
2024/01/19 10:25:23;;;;;;;19.27;11.75;;;;;;;3.15;62.53;99345.75;4288423;33;20442;-75
2024/01/19 10:27:56;;;;;;;23.42;13.23;;;;;;;2.90;62.76;99359.13;4288583;33;20171;-75
2024/01/19 10:30:27;;;;;;;18.27;11.25;;;;;;;2.84;63.72;99359.41;4288261;33;20438;-75
2024/01/19 10:33:05;;;;;;;18.77;13.30;;;;;;;2.70;63.70;99377.53;4288526;33;20266;-74
2024/01/19 10:35:36;;;;;;;18.62;11.23;;;;;;;2.83;63.93;99393.50;4288528;33;20401;-76
2024/01/19 10:38:10;;;;;;;17.85;11.23;;;;;;;2.88;63.03;99397.59;4288820;33;20553;-75
2024/01/19 10:40:42;;;;;;;18.58;10.80;;;;;;;2.81;63.29;99409.28;4287182;33;20442;-75
2024/01/19 10:43:22;;;;;;;;;;;;;;;2.53;63.89;99414.87;4302933;28;20396;-74
2024/01/19 10:45:52;;;;;;;17.73;12.77;;;;;;;2.84;62.73;99416.97;4302905;33;20282;-74
2024/01/19 10:48:26;;;;;;;16.70;11.18;;;;;;;2.88;63.03;99438.63;4308561;33;20150;-74
2024/01/19 10:51:02;;;;;;;19.10;11.12;;;;;;;2.76;62.71;99444.41;4312897;33;20156;-74
2024/01/19 10:53:32;;;;;;;21.23;12.20;;;;;;;2.73;62.60;99453.22;4316642;33;20516;-75
2024/01/19 10:56:02;;;;;;;15.57;11.82;;;;;;;2.64;63.05;99461.50;4317650;33;20167;-75
2024/01/19 10:58:33;;;;;;;15.50;10.52;;;;;;;2.96;61.82;99475.75;4317468;33;20158;-74
2024/01/19 11:01:15;;;;;;;13.38;11.25;;;;;;;2.75;61.33;99481.97;4312585;33;20155;-75
2024/01/19 11:03:47;;;;;;;19.85;13.15;;;;;;;2.74;60.91;99485.50;4311844;33;20139;-74
2024/01/19 11:06:17;;;;;;;22.95;13.05;;;;;;;2.67;61.40;99483.13;4316882;33;20147;-75
2024/01/19 11:08:47;;;;;;;18.40;11.85;;;;;;;2.94;60.54;99496.78;4317242;33;20521;-74
2024/01/19 11:11:21;;;;;;;18.95;10.07;;;;;;;2.84;60.67;99495.47;4319147;28;20159;-75
2024/01/19 11:13:56;;;;;;;24.60;12.95;;;;;;;2.60;60.19;99504.38;4287030;33;20167;-74
2024/01/19 11:16:29;;;;;;;22.20;12.15;;;;;;;2.66;60.92;99510.22;4288451;33;20415;-74
2024/01/19 11:19:12;;;;;;;17.65;10.60;;;;;;;2.46;61.32;99510.22;4288143;33;20421;-74
2024/01/19 11:21:45;;;;;;;19.77;12.95;;;;;;;2.46;61.14;99515.44;4288291;33;20498;-74
2024/01/19 11:24:16;;;;;;;17.92;12.07;;;;;;;2.43;61.12;99523.41;4288193;33;20147;-74
2024/01/19 11:26:51;;;;;;;18.45;12.65;;;;;;;2.41;61.55;99517.38;4289391;33;20178;-75
2024/01/19 11:29:28;;;;;;;20.35;13.73;;;;;;;2.44;61.44;99522.50;4290429;33;20147;-74
2024/01/19 11:32:00;;;;;;;22.02;14.60;;;;;;;2.40;61.40;99524.38;4276470;33;20160;-74
2024/01/19 11:34:48;;;;;;;22.20;13.18;;;;;;;2.53;61.76;99535.19;4289883;33;20147;-74
2024/01/19 11:37:41;;;;;;;22.37;15.82;;;;;;;2.31;62.14;99523.94;4289473;33;20133;-74
2024/01/19 11:40:35;;;;;;;34.63;17.65;;;;;;;2.13;63.37;99539.44;4289428;33;20155;-75
2024/01/19 11:43:04;;;;;;;30.88;19.12;;;;;;;2.29;62.91;99523.97;4293283;28;20115;-74
2024/01/19 11:45:40;;;;;;;26.67;16.00;;;;;;;2.43;62.63;99523.41;4287945;33;20294;-75
2024/01/19 11:48:43;;;;;;;38.55;22.80;;;;;;;2.45;62.52;99527.69;4293691;33;20163;-75